sensor_id;sensor_type;location;lat;lon;timestamp;pressure;altitude;pressure_sealevel;temperature;humidity
78894;BME280;68282;42.698;23.350;2024-01-06T00:01:38;95335.00;;;8.57;64.89
78894;BME280;68282;42.698;23.350;2024-01-06T00:04:04;95327.19;;;8.42;64.84
78894;BME280;68282;42.698;23.350;2024-01-06T00:06:29;95322.34;;;8.44;64.59
78894;BME280;68282;42.698;23.350;2024-01-06T00:08:54;95312.19;;;8.39;64.58
78894;BME280;68282;42.698;23.350;2024-01-06T00:11:21;95308.06;;;8.36;64.39
78894;BME280;68282;42.698;23.350;2024-01-06T00:13:47;95298.50;;;8.34;64.73
78894;BME280;68282;42.698;23.350;2024-01-06T00:16:16;95310.94;;;8.42;65.00
78894;BME280;68282;42.698;23.350;2024-01-06T00:18:43;95313.03;;;8.40;64.66
78894;BME280;68282;42.698;23.350;2024-01-06T00:21:08;95335.78;;;8.39;64.63
78894;BME280;68282;42.698;23.350;2024-01-06T00:23:34;95338.09;;;8.35;64.80
78894;BME280;68282;42.698;23.350;2024-01-06T00:25:59;95335.16;;;8.36;64.70
78894;BME280;68282;42.698;23.350;2024-01-06T00:28:25;95324.38;;;8.30;64.59
78894;BME280;68282;42.698;23.350;2024-01-06T00:30:51;95329.28;;;8.40;64.78
78894;BME280;68282;42.698;23.350;2024-01-06T00:33:16;95321.47;;;8.31;64.91
78894;BME280;68282;42.698;23.350;2024-01-06T00:35:42;95323.50;;;8.36;64.83
78894;BME280;68282;42.698;23.350;2024-01-06T00:38:07;95341.44;;;8.37;64.32
78894;BME280;68282;42.698;23.350;2024-01-06T00:40:33;95347.50;;;8.32;65.03
78894;BME280;68282;42.698;23.350;2024-01-06T00:42:59;95326.22;;;8.36;64.75
78894;BME280;68282;42.698;23.350;2024-01-06T00:45:24;95334.91;;;8.38;64.69
78894;BME280;68282;42.698;23.350;2024-01-06T00:47:50;95323.94;;;8.14;64.85
78894;BME280;68282;42.698;23.350;2024-01-06T00:50:17;95329.88;;;8.23;64.56
78894;BME280;68282;42.698;23.350;2024-01-06T00:52:43;95306.47;;;8.29;64.39
78894;BME280;68282;42.698;23.350;2024-01-06T00:55:10;95303.19;;;8.27;64.02
78894;BME280;68282;42.698;23.350;2024-01-06T00:57:36;95305.88;;;8.27;64.26
78894;BME280;68282;42.698;23.350;2024-01-06T01:00:05;95306.22;;;8.12;64.25
78894;BME280;68282;42.698;23.350;2024-01-06T01:02:31;95325.34;;;8.17;64.35
78894;BME280;68282;42.698;23.350;2024-01-06T01:04:57;95328.94;;;8.11;64.29
78894;BME280;68282;42.698;23.350;2024-01-06T01:07:23;95318.78;;;8.06;64.21
78894;BME280;68282;42.698;23.350;2024-01-06T01:09:49;95318.34;;;8.09;64.09
78894;BME280;68282;42.698;23.350;2024-01-06T01:12:14;95312.47;;;8.12;63.87
78894;BME280;68282;42.698;23.350;2024-01-06T01:14:40;95306.44;;;8.10;64.23
78894;BME280;68282;42.698;23.350;2024-01-06T01:17:05;95315.81;;;8.14;63.50
78894;BME280;68282;42.698;23.350;2024-01-06T01:19:31;95306.22;;;8.12;64.77
78894;BME280;68282;42.698;23.350;2024-01-06T01:21:56;95305.09;;;8.01;64.32
78894;BME280;68282;42.698;23.350;2024-01-06T01:24:22;95313.78;;;8.10;64.00
78894;BME280;68282;42.698;23.350;2024-01-06T01:26:49;95310.66;;;8.06;64.24
78894;BME280;68282;42.698;23.350;2024-01-06T01:29:15;95318.78;;;8.06;64.07
78894;BME280;68282;42.698;23.350;2024-01-06T01:31:40;95308.78;;;8.07;64.42
78894;BME280;68282;42.698;23.350;2024-01-06T01:34:06;95309.22;;;8.03;64.32
78894;BME280;68282;42.698;23.350;2024-01-06T01:36:31;95299.06;;;7.99;64.10
78894;BME280;68282;42.698;23.350;2024-01-06T01:38:57;95294.31;;;7.94;64.44
78894;BME280;68282;42.698;23.350;2024-01-06T01:41:22;95282.25;;;7.90;64.37
78894;BME280;68282;42.698;23.350;2024-01-06T01:43:48;95290.63;;;7.88;64.48
78894;BME280;68282;42.698;23.350;2024-01-06T01:46:13;95285.63;;;7.85;64.35
78894;BME280;68282;42.698;23.350;2024-01-06T01:48:39;95296.84;;;7.89;64.79
78894;BME280;68282;42.698;23.350;2024-01-06T01:51:05;95280.22;;;7.85;64.72
78894;BME280;68282;42.698;23.350;2024-01-06T01:53:31;95278.56;;;7.84;64.94
78894;BME280;68282;42.698;23.350;2024-01-06T01:55:57;95274.06;;;7.78;64.93
78894;BME280;68282;42.698;23.350;2024-01-06T01:58:23;95277.97;;;7.82;65.01
78894;BME280;68282;42.698;23.350;2024-01-06T02:00:49;95264.88;;;7.79;65.31
78894;BME280;68282;42.698;23.350;2024-01-06T02:03:16;95275.41;;;7.87;64.91
78894;BME280;68282;42.698;23.350;2024-01-06T02:05:41;95262.78;;;7.81;64.62
78894;BME280;68282;42.698;23.350;2024-01-06T02:08:07;95266.53;;;7.80;64.64
78894;BME280;68282;42.698;23.350;2024-01-06T02:10:32;95262.78;;;7.81;65.05
78894;BME280;68282;42.698;23.350;2024-01-06T02:13:07;95250.72;;;7.77;64.94
78894;BME280;68282;42.698;23.350;2024-01-06T02:15:33;95253.00;;;7.80;65.35
78894;BME280;68282;42.698;23.350;2024-01-06T02:17:59;95243.59;;;7.83;65.29
78894;BME280;68282;42.698;23.350;2024-01-06T02:20:25;95231.94;;;7.82;64.86
78894;BME280;68282;42.698;23.350;2024-01-06T02:22:52;95232.31;;;7.86;65.18
78894;BME280;68282;42.698;23.350;2024-01-06T02:25:18;95232.16;;;7.81;64.85
78894;BME280;68282;42.698;23.350;2024-01-06T02:27:43;95248.41;;;7.81;65.43
78894;BME280;68282;42.698;23.350;2024-01-06T02:30:09;95233.38;;;7.85;65.34
78894;BME280;68282;42.698;23.350;2024-01-06T02:32:35;95235.84;;;7.86;65.14
78894;BME280;68282;42.698;23.350;2024-01-06T02:35:00;95207.78;;;7.81;65.37
78894;BME280;68282;42.698;23.350;2024-01-06T02:37:26;95213.38;;;7.86;64.88
78894;BME280;68282;42.698;23.350;2024-01-06T02:39:52;95230.22;;;7.88;65.00
78894;BME280;68282;42.698;23.350;2024-01-06T02:42:18;95230.28;;;7.81;64.96
78894;BME280;68282;42.698;23.350;2024-01-06T02:44:44;95216.09;;;7.86;65.31
78894;BME280;68282;42.698;23.350;2024-01-06T02:47:10;95220.22;;;7.88;65.14
78894;BME280;68282;42.698;23.350;2024-01-06T02:49:35;95208.41;;;7.83;64.92
78894;BME280;68282;42.698;23.350;2024-01-06T02:52:01;95219.59;;;7.86;64.19
78894;BME280;68282;42.698;23.350;2024-01-06T02:54:26;95214.41;;;7.85;64.14
78894;BME280;68282;42.698;23.350;2024-01-06T02:56:51;95224.66;;;7.83;64.24
78894;BME280;68282;42.698;23.350;2024-01-06T02:59:17;95198.63;;;7.82;64.16
78894;BME280;68282;42.698;23.350;2024-01-06T03:01:43;95204.03;;;7.82;63.97
78894;BME280;68282;42.698;23.350;2024-01-06T03:04:08;95171.41;;;7.77;63.93
78894;BME280;68282;42.698;23.350;2024-01-06T03:06:34;95190.78;;;7.73;63.95
78894;BME280;68282;42.698;23.350;2024-01-06T03:08:59;95186.66;;;7.71;64.28
78894;BME280;68282;42.698;23.350;2024-01-06T03:11:25;95171.00;;;7.73;64.66
78894;BME280;68282;42.698;23.350;2024-01-06T03:13:50;95195.91;;;7.82;63.94
78894;BME280;68282;42.698;23.350;2024-01-06T03:16:16;95189.69;;;7.81;64.32
78894;BME280;68282;42.698;23.350;2024-01-06T03:18:41;95187.41;;;7.78;64.44
78894;BME280;68282;42.698;23.350;2024-01-06T03:21:19;95195.38;;;7.73;64.23
78894;BME280;68282;42.698;23.350;2024-01-06T03:23:46;95183.97;;;7.71;64.37
78894;BME280;68282;42.698;23.350;2024-01-06T03:26:11;95179.13;;;7.73;64.09
78894;BME280;68282;42.698;23.350;2024-01-06T03:28:37;95183.03;;;7.77;63.89
78894;BME280;68282;42.698;23.350;2024-01-06T03:31:03;95179.13;;;7.73;63.59
78894;BME280;68282;42.698;23.350;2024-01-06T03:33:28;95186.25;;;7.67;63.73
78894;BME280;68282;42.698;23.350;2024-01-06T03:35:54;95183.03;;;7.58;63.98
78894;BME280;68282;42.698;23.350;2024-01-06T03:38:19;95183.19;;;7.64;64.12
78894;BME280;68282;42.698;23.350;2024-01-06T03:40:45;95180.84;;;7.67;63.85
78894;BME280;68282;42.698;23.350;2024-01-06T03:43:10;95185.06;;;7.63;63.46
78894;BME280;68282;42.698;23.350;2024-01-06T03:45:36;95179.47;;;7.58;64.09
78894;BME280;68282;42.698;23.350;2024-01-06T03:48:01;95191.28;;;7.64;63.86
78894;BME280;68282;42.698;23.350;2024-01-06T03:50:27;95175.59;;;7.54;63.75
78894;BME280;68282;42.698;23.350;2024-01-06T03:52:52;95178.66;;;7.57;63.97
78894;BME280;68282;42.698;23.350;2024-01-06T03:55:18;95188.81;;;7.62;63.60
78894;BME280;68282;42.698;23.350;2024-01-06T03:57:43;95180.94;;;7.61;63.28
78894;BME280;68282;42.698;23.350;2024-01-06T04:00:09;95175.13;;;7.57;63.38
78894;BME280;68282;42.698;23.350;2024-01-06T04:02:35;95166.69;;;7.47;63.71
78894;BME280;68282;42.698;23.350;2024-01-06T04:05:01;95173.38;;;7.44;63.80
78894;BME280;68282;42.698;23.350;2024-01-06T04:07:26;95173.81;;;7.41;64.49
78894;BME280;68282;42.698;23.350;2024-01-06T04:09:52;95178.13;;;7.49;64.63
78894;BME280;68282;42.698;23.350;2024-01-06T04:12:17;95181.88;;;7.48;64.35
78894;BME280;68282;42.698;23.350;2024-01-06T04:14:43;95181.81;;;7.54;63.64
78894;BME280;68282;42.698;23.350;2024-01-06T04:17:08;95189.69;;;7.56;64.11
78894;BME280;68282;42.698;23.350;2024-01-06T04:19:34;95176.41;;;7.54;63.55
78894;BME280;68282;42.698;23.350;2024-01-06T04:22:01;95172.81;;;7.61;63.87
78894;BME280;68282;42.698;23.350;2024-01-06T04:24:26;95163.31;;;7.51;64.41
78894;BME280;68282;42.698;23.350;2024-01-06T04:26:52;95164.34;;;7.50;63.86
78894;BME280;68282;42.698;23.350;2024-01-06T04:29:18;95182.84;;;7.53;63.50
78894;BME280;68282;42.698;23.350;2024-01-06T04:31:43;95180.94;;;7.61;63.25
78894;BME280;68282;42.698;23.350;2024-01-06T04:34:09;95180.59;;;7.50;64.07
78894;BME280;68282;42.698;23.350;2024-01-06T04:36:34;95203.91;;;7.51;63.72
78894;BME280;68282;42.698;23.350;2024-01-06T04:38:59;95192.50;;;7.49;63.67
78894;BME280;68282;42.698;23.350;2024-01-06T04:41:25;95203.75;;;7.46;63.72
78894;BME280;68282;42.698;23.350;2024-01-06T04:43:50;95187.53;;;7.46;63.15
78894;BME280;68282;42.698;23.350;2024-01-06T04:46:16;95191.41;;;7.50;63.65
78894;BME280;68282;42.698;23.350;2024-01-06T04:48:41;95197.44;;;7.52;63.94
78894;BME280;68282;42.698;23.350;2024-01-06T04:51:09;95206.56;;;7.58;63.35
78894;BME280;68282;42.698;23.350;2024-01-06T04:53:38;95198.47;;;7.51;62.91
78894;BME280;68282;42.698;23.350;2024-01-06T04:56:04;95182.50;;;7.24;63.11
78894;BME280;68282;42.698;23.350;2024-01-06T04:58:30;95198.84;;;7.36;64.05
78894;BME280;68282;42.698;23.350;2024-01-06T05:00:56;95194.47;;;7.35;63.64
78894;BME280;68282;42.698;23.350;2024-01-06T05:03:21;95192.09;;;7.46;63.74
78894;BME280;68282;42.698;23.350;2024-01-06T05:05:47;95207.63;;;7.32;63.19
78894;BME280;68282;42.698;23.350;2024-01-06T05:08:12;95211.97;;;7.33;63.05
78894;BME280;68282;42.698;23.350;2024-01-06T05:10:38;95157.16;;;7.19;62.93
78894;BME280;68282;42.698;23.350;2024-01-06T05:13:03;95169.78;;;7.25;63.62
78894;BME280;68282;42.698;23.350;2024-01-06T05:15:29;95178.28;;;7.28;63.09
78894;BME280;68282;42.698;23.350;2024-01-06T05:17:55;95174.53;;;7.30;62.83
78894;BME280;68282;42.698;23.350;2024-01-06T05:20:20;95193.72;;;7.28;62.72
78894;BME280;68282;42.698;23.350;2024-01-06T05:22:46;95173.88;;;6.84;63.46
78894;BME280;68282;42.698;23.350;2024-01-06T05:25:11;95176.44;;;7.04;63.50
78894;BME280;68282;42.698;23.350;2024-01-06T05:27:37;95158.69;;;7.08;63.38
78894;BME280;68282;42.698;23.350;2024-01-06T05:30:03;95170.13;;;7.10;63.44
78894;BME280;68282;42.698;23.350;2024-01-06T05:32:28;95163.25;;;7.14;63.32
78894;BME280;68282;42.698;23.350;2024-01-06T05:34:54;95150.16;;;7.11;63.38
78894;BME280;68282;42.698;23.350;2024-01-06T05:37:19;95138.91;;;7.14;63.76
78894;BME280;68282;42.698;23.350;2024-01-06T05:39:45;95158.81;;;7.20;63.33
78894;BME280;68282;42.698;23.350;2024-01-06T05:42:10;95160.25;;;7.22;63.71
78894;BME280;68282;42.698;23.350;2024-01-06T05:44:45;95151.75;;;7.19;63.35
78894;BME280;68282;42.698;23.350;2024-01-06T05:47:10;95154.66;;;7.17;63.83
78894;BME280;68282;42.698;23.350;2024-01-06T05:49:36;95166.75;;;7.15;63.67
78894;BME280;68282;42.698;23.350;2024-01-06T05:52:01;95156.38;;;7.11;63.98
78894;BME280;68282;42.698;23.350;2024-01-06T05:54:27;95160.31;;;7.16;64.05
78894;BME280;68282;42.698;23.350;2024-01-06T05:56:52;95160.91;;;7.18;64.23
78894;BME280;68282;42.698;23.350;2024-01-06T05:59:18;95141.97;;;7.18;63.89
78894;BME280;68282;42.698;23.350;2024-01-06T06:01:43;95157.59;;;7.16;63.94
78894;BME280;68282;42.698;23.350;2024-01-06T06:04:12;95150.47;;;7.21;63.46
78894;BME280;68282;42.698;23.350;2024-01-06T06:06:38;95150.72;;;7.20;63.30
78894;BME280;68282;42.698;23.350;2024-01-06T06:09:03;95148.22;;;7.18;63.11
78894;BME280;68282;42.698;23.350;2024-01-06T06:11:33;95151.69;;;7.25;62.96
78894;BME280;68282;42.698;23.350;2024-01-06T06:13:58;95149.75;;;7.33;62.30
78894;BME280;68282;42.698;23.350;2024-01-06T06:16:24;95147.00;;;7.39;62.13
78894;BME280;68282;42.698;23.350;2024-01-06T06:18:49;95143.44;;;7.39;62.22
78894;BME280;68282;42.698;23.350;2024-01-06T06:21:15;95137.59;;;7.42;61.95
78894;BME280;68282;42.698;23.350;2024-01-06T06:23:41;95140.28;;;7.42;61.62
78894;BME280;68282;42.698;23.350;2024-01-06T06:26:07;95145.56;;;7.37;61.95
78894;BME280;68282;42.698;23.350;2024-01-06T06:28:34;95138.25;;;7.37;61.36
78894;BME280;68282;42.698;23.350;2024-01-06T06:31:00;95132.63;;;7.39;61.32
78894;BME280;68282;42.698;23.350;2024-01-06T06:33:26;95141.81;;;7.38;61.45
78894;BME280;68282;42.698;23.350;2024-01-06T06:35:51;95161.19;;;7.35;61.38
78894;BME280;68282;42.698;23.350;2024-01-06T06:38:17;95148.28;;;7.37;61.29
78894;BME280;68282;42.698;23.350;2024-01-06T06:40:42;95165.44;;;7.49;61.08
78894;BME280;68282;42.698;23.350;2024-01-06T06:43:07;95154.44;;;7.44;61.28
78894;BME280;68282;42.698;23.350;2024-01-06T06:45:34;95143.78;;;7.49;60.54
78894;BME280;68282;42.698;23.350;2024-01-06T06:48:00;95156.91;;;7.46;61.33
78894;BME280;68282;42.698;23.350;2024-01-06T06:50:25;95166.31;;;7.43;61.01
78894;BME280;68282;42.698;23.350;2024-01-06T06:52:51;95155.53;;;7.36;61.26
78894;BME280;68282;42.698;23.350;2024-01-06T06:55:18;95163.53;;;7.50;61.34
78894;BME280;68282;42.698;23.350;2024-01-06T06:57:43;95150.44;;;7.47;60.85
78894;BME280;68282;42.698;23.350;2024-01-06T07:00:09;95146.63;;;7.54;61.04
78894;BME280;68282;42.698;23.350;2024-01-06T07:02:35;95160.34;;;7.60;60.60
78894;BME280;68282;42.698;23.350;2024-01-06T07:05:00;95148.91;;;7.57;60.85
78894;BME280;68282;42.698;23.350;2024-01-06T07:07:26;95144.97;;;7.53;60.29
78894;BME280;68282;42.698;23.350;2024-01-06T07:09:51;95155.72;;;7.60;61.12
78894;BME280;68282;42.698;23.350;2024-01-06T07:12:17;95139.66;;;7.65;61.17
78894;BME280;68282;42.698;23.350;2024-01-06T07:14:42;95143.84;;;7.61;60.96
78894;BME280;68282;42.698;23.350;2024-01-06T07:17:08;95135.19;;;7.52;61.02
78894;BME280;68282;42.698;23.350;2024-01-06T07:19:35;95129.56;;;7.54;60.99
78894;BME280;68282;42.698;23.350;2024-01-06T07:22:01;95127.69;;;7.54;61.20
78894;BME280;68282;42.698;23.350;2024-01-06T07:24:26;95132.59;;;7.64;60.89
78894;BME280;68282;42.698;23.350;2024-01-06T07:26:52;95131.91;;;7.69;60.85
78894;BME280;68282;42.698;23.350;2024-01-06T07:29:18;95142.28;;;7.72;60.82
78894;BME280;68282;42.698;23.350;2024-01-06T07:31:44;95145.50;;;7.62;61.11
78894;BME280;68282;42.698;23.350;2024-01-06T07:34:10;95135.06;;;7.66;61.63
78894;BME280;68282;42.698;23.350;2024-01-06T07:36:35;95127.09;;;7.71;61.04
78894;BME280;68282;42.698;23.350;2024-01-06T07:39:01;95140.94;;;7.81;61.07
78894;BME280;68282;42.698;23.350;2024-01-06T07:41:26;95115.53;;;7.82;61.50
78894;BME280;68282;42.698;23.350;2024-01-06T07:43:52;95143.84;;;7.80;61.44
78894;BME280;68282;42.698;23.350;2024-01-06T07:46:17;95137.84;;;7.78;61.76
78894;BME280;68282;42.698;23.350;2024-01-06T07:48:43;95103.78;;;7.70;61.40
78894;BME280;68282;42.698;23.350;2024-01-06T07:51:08;95134.16;;;7.72;62.45
78894;BME280;68282;42.698;23.350;2024-01-06T07:53:34;95138.06;;;7.76;61.32
78894;BME280;68282;42.698;23.350;2024-01-06T07:55:59;95151.06;;;7.67;61.71
78894;BME280;68282;42.698;23.350;2024-01-06T07:58:28;95129.72;;;7.78;61.76
78894;BME280;68282;42.698;23.350;2024-01-06T08:00:53;95140.88;;;7.88;61.59
78894;BME280;68282;42.698;23.350;2024-01-06T08:03:19;95115.28;;;7.84;60.84
78894;BME280;68282;42.698;23.350;2024-01-06T08:05:44;95151.91;;;7.86;61.51
78894;BME280;68282;42.698;23.350;2024-01-06T08:08:10;95129.88;;;7.83;61.65
78894;BME280;68282;42.698;23.350;2024-01-06T08:10:38;95134.63;;;7.87;61.77
78894;BME280;68282;42.698;23.350;2024-01-06T08:13:03;95150.00;;;7.68;61.42
78894;BME280;68282;42.698;23.350;2024-01-06T08:15:29;95135.59;;;7.74;61.68
78894;BME280;68282;42.698;23.350;2024-01-06T08:17:54;95175.16;;;7.76;61.77
78894;BME280;68282;42.698;23.350;2024-01-06T08:20:20;95131.44;;;7.72;61.64
78894;BME280;68282;42.698;23.350;2024-01-06T08:22:45;95127.47;;;7.74;61.58
78894;BME280;68282;42.698;23.350;2024-01-06T08:25:12;95149.41;;;7.66;61.87
78894;BME280;68282;42.698;23.350;2024-01-06T08:27:39;95104.16;;;7.73;62.02
78894;BME280;68282;42.698;23.350;2024-01-06T08:30:05;95154.91;;;7.78;61.42
78894;BME280;68282;42.698;23.350;2024-01-06T08:32:31;95138.06;;;7.76;61.60
78894;BME280;68282;42.698;23.350;2024-01-06T08:34:57;95120.34;;;7.80;61.32
78894;BME280;68282;42.698;23.350;2024-01-06T08:37:22;95150.38;;;7.72;61.59
78894;BME280;68282;42.698;23.350;2024-01-06T08:39:48;95117.25;;;7.77;62.16
78894;BME280;68282;42.698;23.350;2024-01-06T08:42:14;95130.94;;;7.82;60.71
78894;BME280;68282;42.698;23.350;2024-01-06T08:44:39;95159.59;;;7.89;60.14
78894;BME280;68282;42.698;23.350;2024-01-06T08:47:05;95135.34;;;7.95;59.65
78894;BME280;68282;42.698;23.350;2024-01-06T08:49:30;95125.59;;;7.94;59.52
78894;BME280;68282;42.698;23.350;2024-01-06T08:51:56;95140.09;;;7.99;59.82
78894;BME280;68282;42.698;23.350;2024-01-06T08:54:22;95127.00;;;7.96;58.92
78894;BME280;68282;42.698;23.350;2024-01-06T08:57:06;95117.53;;;8.05;59.89
78894;BME280;68282;42.698;23.350;2024-01-06T08:59:31;95122.94;;;8.05;59.63
78894;BME280;68282;42.698;23.350;2024-01-06T09:01:57;95127.84;;;8.15;59.23
78894;BME280;68282;42.698;23.350;2024-01-06T09:04:22;95116.66;;;8.24;59.20
78894;BME280;68282;42.698;23.350;2024-01-06T09:06:48;95120.09;;;8.31;59.23
78894;BME280;68282;42.698;23.350;2024-01-06T09:09:14;95087.59;;;8.31;59.90
78894;BME280;68282;42.698;23.350;2024-01-06T09:11:39;95116.38;;;8.44;59.04
78894;BME280;68282;42.698;23.350;2024-01-06T09:14:05;95104.66;;;8.50;58.79
78894;BME280;68282;42.698;23.350;2024-01-06T09:16:30;95087.84;;;8.41;58.35
78894;BME280;68282;42.698;23.350;2024-01-06T09:18:56;95110.31;;;8.48;57.74
78894;BME280;68282;42.698;23.350;2024-01-06T09:21:22;95081.81;;;8.27;58.45
78894;BME280;68282;42.698;23.350;2024-01-06T09:23:48;95079.88;;;8.46;58.59
78894;BME280;68282;42.698;23.350;2024-01-06T09:26:13;95116.22;;;8.57;57.68
78894;BME280;68282;42.698;23.350;2024-01-06T09:28:41;95077.34;;;8.63;58.13
78894;BME280;68282;42.698;23.350;2024-01-06T09:31:07;95078.63;;;8.61;58.19
78894;BME280;68282;42.698;23.350;2024-01-06T09:33:32;95055.06;;;8.73;57.44
78894;BME280;68282;42.698;23.350;2024-01-06T09:35:59;95054.38;;;8.66;58.14
78894;BME280;68282;42.698;23.350;2024-01-06T09:38:25;95073.25;;;8.73;58.32
78894;BME280;68282;42.698;23.350;2024-01-06T09:40:53;95050.84;;;8.77;58.05
78894;BME280;68282;42.698;23.350;2024-01-06T09:43:19;95062.28;;;8.79;58.15
78894;BME280;68282;42.698;23.350;2024-01-06T09:45:56;95055.22;;;8.78;57.74
78894;BME280;68282;42.698;23.350;2024-01-06T09:48:28;95036.84;;;8.80;57.79
78894;BME280;68282;42.698;23.350;2024-01-06T09:50:56;95052.03;;;8.81;57.34
78894;BME280;68282;42.698;23.350;2024-01-06T09:53:24;95045.81;;;8.93;57.96
78894;BME280;68282;42.698;23.350;2024-01-06T09:55:55;95046.50;;;9.00;57.51
78894;BME280;68282;42.698;23.350;2024-01-06T09:58:21;95052.50;;;8.90;57.63
78894;BME280;68282;42.698;23.350;2024-01-06T10:00:48;95024.22;;;8.98;57.75
78894;BME280;68282;42.698;23.350;2024-01-06T10:03:14;95003.00;;;9.07;57.24
78894;BME280;68282;42.698;23.350;2024-01-06T10:05:40;95015.72;;;9.06;57.46
78894;BME280;68282;42.698;23.350;2024-01-06T10:08:06;95047.06;;;8.90;56.96
78894;BME280;68282;42.698;23.350;2024-01-06T10:10:33;95004.88;;;8.94;57.72
78894;BME280;68282;42.698;23.350;2024-01-06T10:12:59;95032.81;;;8.95;58.07
78894;BME280;68282;42.698;23.350;2024-01-06T10:15:25;95000.59;;;8.98;57.38
78894;BME280;68282;42.698;23.350;2024-01-06T10:17:53;95009.69;;;9.04;57.72
78894;BME280;68282;42.698;23.350;2024-01-06T10:20:19;95004.41;;;9.09;57.71
78894;BME280;68282;42.698;23.350;2024-01-06T10:22:46;95010.50;;;9.17;57.78
78894;BME280;68282;42.698;23.350;2024-01-06T10:25:12;95000.03;;;9.08;56.78
78894;BME280;68282;42.698;23.350;2024-01-06T10:27:39;94963.69;;;9.09;56.83
78894;BME280;68282;42.698;23.350;2024-01-06T10:30:06;95003.44;;;9.16;57.36
78894;BME280;68282;42.698;23.350;2024-01-06T10:32:34;94978.91;;;9.10;56.53
78894;BME280;68282;42.698;23.350;2024-01-06T10:35:02;94967.94;;;9.17;57.35
78894;BME280;68282;42.698;23.350;2024-01-06T10:37:29;94992.69;;;9.21;57.36
78894;BME280;68282;42.698;23.350;2024-01-06T10:40:14;94964.59;;;9.27;56.71
78894;BME280;68282;42.698;23.350;2024-01-06T10:42:44;94957.38;;;9.33;57.01
78894;BME280;68282;42.698;23.350;2024-01-06T10:45:14;94980.06;;;9.26;57.29
78894;BME280;68282;42.698;23.350;2024-01-06T10:47:43;94963.53;;;9.28;56.44
78894;BME280;68282;42.698;23.350;2024-01-06T10:50:09;94967.44;;;9.32;57.45
78894;BME280;68282;42.698;23.350;2024-01-06T10:52:35;94956.00;;;9.30;57.70
78894;BME280;68282;42.698;23.350;2024-01-06T10:55:04;94936.75;;;9.32;57.18
78894;BME280;68282;42.698;23.350;2024-01-06T10:57:30;94939.19;;;9.45;57.53
78894;BME280;68282;42.698;23.350;2024-01-06T10:59:59;94950.75;;;9.52;57.41
78894;BME280;68282;42.698;23.350;2024-01-06T11:02:26;94942.34;;;9.54;57.31
78894;BME280;68282;42.698;23.350;2024-01-06T11:04:52;94932.66;;;9.58;57.67
78894;BME280;68282;42.698;23.350;2024-01-06T11:07:22;94925.59;;;9.57;57.14
78894;BME280;68282;42.698;23.350;2024-01-06T11:09:58;94919.19;;;9.63;57.04
78894;BME280;68282;42.698;23.350;2024-01-06T11:12:25;94912.69;;;9.64;57.07
78894;BME280;68282;42.698;23.350;2024-01-06T11:14:52;94926.44;;;9.74;57.63
78894;BME280;68282;42.698;23.350;2024-01-06T11:20:14;94927.69;;;9.84;56.27
78894;BME280;68282;42.698;23.350;2024-01-06T11:22:39;94902.13;;;9.80;55.43
78894;BME280;68282;42.698;23.350;2024-01-06T11:25:07;94878.91;;;9.89;56.29
78894;BME280;68282;42.698;23.350;2024-01-06T11:27:34;94920.72;;;9.88;55.52
78894;BME280;68282;42.698;23.350;2024-01-06T11:30:02;94876.09;;;9.84;55.72
78894;BME280;68282;42.698;23.350;2024-01-06T11:32:35;94860.22;;;9.93;56.08
78894;BME280;68282;42.698;23.350;2024-01-06T11:35:13;94919.34;;;10.02;55.38
78894;BME280;68282;42.698;23.350;2024-01-06T11:40:10;94859.06;;;10.05;56.40
78894;BME280;68282;42.698;23.350;2024-01-06T11:42:42;94886.34;;;10.11;54.58
78894;BME280;68282;42.698;23.350;2024-01-06T11:45:08;94825.50;;;10.12;55.15
78894;BME280;68282;42.698;23.350;2024-01-06T11:47:35;94857.34;;;10.16;55.88
78894;BME280;68282;42.698;23.350;2024-01-06T11:50:01;94846.00;;;10.19;55.86
78894;BME280;68282;42.698;23.350;2024-01-06T11:52:34;94838.53;;;10.32;54.77
78894;BME280;68282;42.698;23.350;2024-01-06T11:55:00;94811.38;;;10.32;55.49
78894;BME280;68282;42.698;23.350;2024-01-06T11:57:27;94830.97;;;10.34;55.04
78894;BME280;68282;42.698;23.350;2024-01-06T11:59:53;94815.25;;;10.36;55.22
78894;BME280;68282;42.698;23.350;2024-01-06T12:02:19;94815.41;;;10.46;55.33
78894;BME280;68282;42.698;23.350;2024-01-06T12:04:50;94824.03;;;10.60;54.61
78894;BME280;68282;42.698;23.350;2024-01-06T12:07:16;94814.31;;;10.64;55.00
78894;BME280;68282;42.698;23.350;2024-01-06T12:09:42;94818.19;;;10.69;54.58
78894;BME280;68282;42.698;23.350;2024-01-06T12:12:08;94796.72;;;10.72;54.40
78894;BME280;68282;42.698;23.350;2024-01-06T12:14:40;94795.66;;;10.73;54.21
78894;BME280;68282;42.698;23.350;2024-01-06T12:17:07;94769.28;;;10.74;54.21
78894;BME280;68282;42.698;23.350;2024-01-06T12:19:33;94767.56;;;10.67;54.53
78894;BME280;68282;42.698;23.350;2024-01-06T12:21:59;94772.75;;;10.69;54.64
78894;BME280;68282;42.698;23.350;2024-01-06T12:24:27;94775.28;;;10.76;54.75
78894;BME280;68282;42.698;23.350;2024-01-06T12:26:55;94788.38;;;10.79;54.66
78894;BME280;68282;42.698;23.350;2024-01-06T12:29:22;94792.69;;;10.75;55.16
78894;BME280;68282;42.698;23.350;2024-01-06T12:31:47;94802.16;;;10.72;55.18
78894;BME280;68282;42.698;23.350;2024-01-06T12:34:13;94795.31;;;10.70;55.75
78894;BME280;68282;42.698;23.350;2024-01-06T12:36:40;94794.00;;;10.72;55.73
78894;BME280;68282;42.698;23.350;2024-01-06T12:39:11;94786.03;;;10.65;55.34
78894;BME280;68282;42.698;23.350;2024-01-06T12:41:41;94789.97;;;10.75;55.37
78894;BME280;68282;42.698;23.350;2024-01-06T12:44:06;94775.72;;;10.67;55.61
78894;BME280;68282;42.698;23.350;2024-01-06T12:46:33;94788.00;;;10.70;55.41
78894;BME280;68282;42.698;23.350;2024-01-06T12:48:59;94779.75;;;10.65;55.70
78894;BME280;68282;42.698;23.350;2024-01-06T12:51:24;94777.88;;;10.65;55.58
78894;BME280;68282;42.698;23.350;2024-01-06T12:53:50;94766.25;;;10.70;55.88
78894;BME280;68282;42.698;23.350;2024-01-06T12:56:16;94757.88;;;10.77;55.85
78894;BME280;68282;42.698;23.350;2024-01-06T12:58:42;94750.34;;;10.84;56.14
78894;BME280;68282;42.698;23.350;2024-01-06T13:01:07;94754.22;;;10.88;56.01